createdAt,value
2018-01-28T00:00:28.736Z,1019.16
2018-01-28T00:01:28.707Z,1019.07
2018-01-28T00:02:28.691Z,1018.98
2018-01-28T00:03:28.718Z,1018.93
2018-01-28T00:04:28.642Z,1018.86
2018-01-28T00:05:28.682Z,1019.04
2018-01-28T00:06:28.598Z,1018.89
2018-01-28T00:07:28.582Z,1018.92
2018-01-28T00:08:28.562Z,1018.93
2018-01-28T00:09:28.543Z,1019.01
2018-01-28T00:10:28.520Z,1018.89
2018-01-28T00:11:28.603Z,1018.98
2018-01-28T00:12:28.469Z,1018.85
2018-01-28T00:13:28.453Z,1018.83
2018-01-28T00:14:28.434Z,1018.80
2018-01-28T00:15:28.408Z,1018.93
2018-01-28T00:16:28.389Z,1018.87
2018-01-28T00:17:28.391Z,1018.83
2018-01-28T00:18:28.344Z,1018.69
2018-01-28T00:19:28.372Z,1018.79
2018-01-28T00:20:28.301Z,1018.75
2018-01-28T00:21:28.283Z,1018.76
2018-01-28T00:22:28.261Z,1018.85
2018-01-28T00:23:28.238Z,1018.91
2018-01-28T00:24:28.218Z,1018.89
2018-01-28T00:25:28.204Z,1018.84
2018-01-28T00:26:28.181Z,1018.73
2018-01-28T00:27:28.156Z,1018.78
2018-01-28T00:28:28.131Z,1018.79
2018-01-28T00:29:28.110Z,1018.86
2018-01-28T00:30:28.090Z,1018.94
2018-01-28T00:31:28.068Z,1018.96
2018-01-28T00:32:28.051Z,1018.86
2018-01-28T00:33:28.024Z,1018.86
2018-01-28T00:34:27.999Z,1018.93
2018-01-28T00:35:27.979Z,1018.78
2018-01-28T00:36:27.958Z,1018.86
2018-01-28T00:37:27.939Z,1018.85
2018-01-28T00:38:27.932Z,1018.89
2018-01-28T00:39:27.893Z,1018.79
2018-01-28T00:40:27.871Z,1018.76
2018-01-28T00:41:27.849Z,1018.71
2018-01-28T00:42:27.835Z,1018.67
2018-01-28T00:43:27.812Z,1018.72
2018-01-28T00:44:27.789Z,1018.69
2018-01-28T00:45:27.784Z,1018.66
2018-01-28T00:46:27.753Z,1018.59
2018-01-28T00:47:27.729Z,1018.59
2018-01-28T00:48:27.705Z,1018.70
2018-01-28T00:49:27.680Z,1018.60
2018-01-28T00:50:27.658Z,1018.60
2018-01-28T00:51:27.642Z,1018.60
2018-01-28T00:52:27.616Z,1018.53
2018-01-28T00:53:27.601Z,1018.45
2018-01-28T00:54:27.578Z,1018.64
2018-01-28T00:55:27.552Z,1018.45
2018-01-28T00:56:27.577Z,1018.42
2018-01-28T00:57:27.507Z,1018.40
2018-01-28T00:58:27.490Z,1018.44
2018-01-28T00:59:27.468Z,1018.44
2018-01-28T01:00:27.443Z,1018.54
2018-01-28T01:01:27.429Z,1018.36
2018-01-28T01:02:27.406Z,1018.41
2018-01-28T01:03:27.383Z,1018.43
2018-01-28T01:04:27.360Z,1018.33
2018-01-28T01:05:27.341Z,1018.43
2018-01-28T01:06:27.319Z,1018.38
2018-01-28T01:07:27.296Z,1018.46
2018-01-28T01:08:27.280Z,1018.40
2018-01-28T01:09:27.255Z,1018.38
2018-01-28T01:10:27.236Z,1018.49
2018-01-28T01:11:27.207Z,1018.53
2018-01-28T01:12:27.186Z,1018.46
2018-01-28T01:13:27.172Z,1018.56
2018-01-28T01:14:27.146Z,1018.58
2018-01-28T01:15:27.126Z,1018.52
2018-01-28T01:16:27.105Z,1018.55
2018-01-28T01:17:27.085Z,1018.64
2018-01-28T01:18:27.059Z,1018.44
2018-01-28T01:19:27.038Z,1018.68
2018-01-28T01:20:27.018Z,1018.64
2018-01-28T01:21:26.999Z,1018.60
2018-01-28T01:22:26.977Z,1018.63
2018-01-28T01:23:26.954Z,1018.67
2018-01-28T01:24:26.946Z,1018.65
2018-01-28T01:25:26.910Z,1018.64
2018-01-28T01:26:26.890Z,1018.68
2018-01-28T01:27:26.867Z,1018.62
2018-01-28T01:28:26.848Z,1018.72
2018-01-28T01:29:26.823Z,1018.74
2018-01-28T01:30:26.813Z,1018.65
2018-01-28T01:31:26.779Z,1018.70
2018-01-28T01:32:26.769Z,1018.74
2018-01-28T01:33:26.740Z,1018.69
2018-01-28T01:34:26.717Z,1018.68
2018-01-28T01:35:26.699Z,1018.67
2018-01-28T01:36:26.679Z,1018.73
2018-01-28T01:37:26.659Z,1018.69
2018-01-28T01:38:26.634Z,1018.73
2018-01-28T01:39:26.615Z,1018.74
2018-01-28T01:40:26.589Z,1018.76
2018-01-28T01:41:26.570Z,1018.70
2018-01-28T01:42:26.559Z,1018.80
2018-01-28T01:43:26.538Z,1018.80
2018-01-28T01:44:26.514Z,1018.74
2018-01-28T01:45:26.488Z,1018.78
2018-01-28T01:46:26.465Z,1018.71
2018-01-28T01:47:26.444Z,1018.78
2018-01-28T01:48:26.424Z,1018.75
2018-01-28T01:49:26.403Z,1018.64
2018-01-28T01:50:26.380Z,1018.70
2018-01-28T01:51:26.365Z,1018.71
2018-01-28T01:52:26.339Z,1018.63
2018-01-28T01:53:26.316Z,1018.66
2018-01-28T01:54:26.297Z,1018.52
2018-01-28T01:55:26.277Z,1018.63
2018-01-28T01:56:26.260Z,1018.58
2018-01-28T01:57:26.233Z,1018.54
2018-01-28T01:58:26.211Z,1018.59
2018-01-28T01:59:26.230Z,1018.52
2018-01-28T02:00:26.172Z,1018.48
2018-01-28T02:01:26.152Z,1018.43
2018-01-28T02:02:26.125Z,1018.40
2018-01-28T02:03:26.110Z,1018.46
2018-01-28T02:04:26.083Z,1018.43
2018-01-28T02:05:26.065Z,1018.39
2018-01-28T02:06:26.044Z,1018.46
2018-01-28T02:07:26.021Z,1018.69
2018-01-28T02:08:25.999Z,1018.53
2018-01-28T02:09:25.979Z,1018.62
2018-01-28T02:10:25.960Z,1018.53
2018-01-28T02:11:25.940Z,1018.54
2018-01-28T02:12:25.921Z,1018.58
2018-01-28T02:13:25.897Z,1018.69
2018-01-28T02:14:25.875Z,1018.69
2018-01-28T02:15:25.861Z,1018.53
2018-01-28T02:16:25.835Z,1018.53
2018-01-28T02:17:25.812Z,1018.48
2018-01-28T02:18:25.793Z,1018.51
2018-01-28T02:19:25.772Z,1018.56
2018-01-28T02:20:25.750Z,1018.51
2018-01-28T02:21:25.736Z,1018.48
2018-01-28T02:22:25.702Z,1018.57
2018-01-28T02:23:25.691Z,1018.55
2018-01-28T02:24:25.659Z,1018.59
2018-01-28T02:25:25.640Z,1018.70
2018-01-28T02:26:25.628Z,1018.55
2018-01-28T02:27:25.610Z,1018.48
2018-01-28T02:28:25.579Z,1018.56
2018-01-28T02:29:25.563Z,1018.44
2018-01-28T02:30:25.544Z,1018.49
2018-01-28T02:31:25.523Z,1018.43
2018-01-28T02:32:25.502Z,1018.61
2018-01-28T02:33:25.479Z,1018.52
2018-01-28T02:34:25.456Z,1018.54
2018-01-28T02:35:25.430Z,1018.54
2018-01-28T02:36:25.410Z,1018.55
2018-01-28T02:37:25.389Z,1018.68
2018-01-28T02:38:25.369Z,1018.70
2018-01-28T02:39:25.344Z,1018.61
2018-01-28T02:40:25.328Z,1018.65
2018-01-28T02:41:25.315Z,1018.75
2018-01-28T02:42:25.290Z,1018.59
2018-01-28T02:43:25.261Z,1018.62
2018-01-28T02:44:25.241Z,1018.62
2018-01-28T02:45:25.223Z,1018.65
2018-01-28T02:46:25.199Z,1018.70
2018-01-28T02:47:25.180Z,1018.73
2018-01-28T02:48:25.159Z,1018.71
2018-01-28T02:49:25.150Z,1018.84
2018-01-28T02:50:25.119Z,1018.86
2018-01-28T02:51:25.098Z,1018.83
2018-01-28T02:52:25.076Z,1018.65
2018-01-28T02:53:25.064Z,1018.63
2018-01-28T02:54:25.044Z,1018.71
2018-01-28T02:55:25.010Z,1018.60
2018-01-28T02:56:25.002Z,1018.65
2018-01-28T02:57:24.970Z,1018.61
2018-01-28T02:58:24.949Z,1018.73
2018-01-28T02:59:24.925Z,1018.71
2018-01-28T03:00:24.911Z,1018.77
2018-01-28T03:01:24.886Z,1018.71
2018-01-28T03:02:24.876Z,1018.79
2018-01-28T03:03:24.840Z,1018.86
2018-01-28T03:04:24.822Z,1018.88
2018-01-28T03:05:24.803Z,1018.92
2018-01-28T03:06:24.777Z,1018.83
2018-01-28T03:07:24.760Z,1018.83
2018-01-28T03:08:24.739Z,1018.84
2018-01-28T03:09:24.715Z,1018.79
2018-01-28T03:10:24.695Z,1018.71
2018-01-28T03:11:24.674Z,1018.80
2018-01-28T03:12:24.659Z,1018.82
2018-01-28T03:13:24.633Z,1018.84
2018-01-28T03:14:24.618Z,1018.85
2018-01-28T03:15:24.592Z,1018.88
2018-01-28T03:16:24.570Z,1018.93
2018-01-28T03:17:24.549Z,1019.05
2018-01-28T03:18:24.526Z,1019.09
2018-01-28T03:19:24.507Z,1019.02
2018-01-28T03:20:24.488Z,1018.99
2018-01-28T03:21:24.470Z,1019.05
2018-01-28T03:22:24.455Z,1019.03
2018-01-28T03:23:24.426Z,1019.00
2018-01-28T03:24:24.410Z,1019.10
2018-01-28T03:25:24.382Z,1019.13
2018-01-28T03:26:24.369Z,1019.14
2018-01-28T03:27:24.338Z,1019.10
2018-01-28T03:28:24.320Z,1019.15
2018-01-28T03:29:24.299Z,1019.15
2018-01-28T03:30:24.279Z,1019.09
2018-01-28T03:31:24.260Z,1019.11
2018-01-28T03:32:24.237Z,1019.13
2018-01-28T03:33:24.216Z,1019.02
2018-01-28T03:34:24.199Z,1019.01
2018-01-28T03:35:24.174Z,1018.98
2018-01-28T03:36:24.160Z,1018.95
2018-01-28T03:37:24.139Z,1018.91
2018-01-28T03:38:24.115Z,1018.94
2018-01-28T03:39:24.093Z,1018.98
2018-01-28T03:40:24.070Z,1018.84
2018-01-28T03:41:24.051Z,1018.83
2018-01-28T03:42:24.032Z,1018.85
2018-01-28T03:43:24.011Z,1018.91
2018-01-28T03:44:24.085Z,1019.01
2018-01-28T03:45:23.970Z,1019.09
2018-01-28T03:46:23.948Z,1019.16
2018-01-28T03:47:23.930Z,1019.25
2018-01-28T03:48:23.910Z,1019.22
2018-01-28T03:49:23.894Z,1019.08
2018-01-28T03:50:23.970Z,1019.09
2018-01-28T03:51:23.845Z,1019.00
2018-01-28T03:52:23.878Z,1019.06
2018-01-28T03:53:23.800Z,1019.16
2018-01-28T03:54:23.787Z,1019.11
2018-01-28T03:55:23.759Z,1019.06
2018-01-28T03:56:23.740Z,1019.04
2018-01-28T03:57:23.717Z,1018.92
2018-01-28T03:58:23.699Z,1018.94
2018-01-28T03:59:23.678Z,1018.90
2018-01-28T04:00:23.760Z,1018.90
2018-01-28T04:01:23.641Z,1018.92
2018-01-28T04:02:23.663Z,1019.01
2018-01-28T04:03:23.592Z,1018.88
2018-01-28T04:04:23.678Z,1018.96
2018-01-28T04:05:23.549Z,1018.95
2018-01-28T04:06:23.586Z,1018.87
2018-01-28T04:07:23.512Z,1018.95
2018-01-28T04:08:23.589Z,1018.96
2018-01-28T04:09:23.472Z,1018.84
2018-01-28T04:10:23.449Z,1018.83
2018-01-28T04:11:23.430Z,1018.84
2018-01-28T04:12:23.510Z,1018.88
2018-01-28T04:13:23.390Z,1018.89
2018-01-28T04:14:23.376Z,1018.85
2018-01-28T04:15:23.346Z,1018.96
2018-01-28T04:16:23.325Z,1019.02
2018-01-28T04:17:23.304Z,1018.98
2018-01-28T04:18:23.286Z,1018.99
2018-01-28T04:19:23.270Z,1019.16
2018-01-28T04:20:23.245Z,1019.17
2018-01-28T04:21:23.219Z,1019.15
2018-01-28T04:22:23.200Z,1019.26
2018-01-28T04:23:23.179Z,1019.17
2018-01-28T04:24:23.159Z,1019.26
2018-01-28T04:25:23.140Z,1019.42
2018-01-28T04:26:23.119Z,1019.31
2018-01-28T04:27:23.099Z,1019.38
2018-01-28T04:28:23.077Z,1019.38
2018-01-28T04:29:23.057Z,1019.28
2018-01-28T04:30:23.040Z,1019.32
2018-01-28T04:31:23.020Z,1019.35
2018-01-28T04:32:23.000Z,1019.28
2018-01-28T04:33:22.976Z,1019.37
2018-01-28T04:34:22.961Z,1019.25
2018-01-28T04:35:22.933Z,1019.25
2018-01-28T04:36:22.914Z,1019.20
2018-01-28T04:37:22.897Z,1019.24
2018-01-28T04:38:22.871Z,1019.15
2018-01-28T04:39:22.854Z,1019.09
2018-01-28T04:40:22.830Z,1019.08
2018-01-28T04:41:22.810Z,1019.05
2018-01-28T04:42:22.793Z,1019.05
2018-01-28T04:43:22.771Z,1019.22
2018-01-28T04:44:22.751Z,1019.26
2018-01-28T04:45:22.729Z,1019.32
2018-01-28T04:46:22.710Z,1019.32
2018-01-28T04:47:22.688Z,1019.38
2018-01-28T04:48:22.668Z,1019.49
2018-01-28T04:49:22.647Z,1019.52
2018-01-28T04:50:22.623Z,1019.38
2018-01-28T04:51:22.610Z,1019.39
2018-01-28T04:52:22.582Z,1019.32
2018-01-28T04:53:22.565Z,1019.36
2018-01-28T04:54:22.546Z,1019.46
2018-01-28T04:55:22.528Z,1019.40
2018-01-28T04:56:22.500Z,1019.49
2018-01-28T04:57:22.480Z,1019.57
2018-01-28T04:58:22.460Z,1019.54
2018-01-28T04:59:22.445Z,1019.54
2018-01-28T05:00:22.421Z,1019.59
2018-01-28T05:01:22.399Z,1019.51
2018-01-28T05:02:22.379Z,1019.51
2018-01-28T05:03:22.359Z,1019.59
2018-01-28T05:04:22.394Z,1019.53
2018-01-28T05:05:22.319Z,1019.43
2018-01-28T05:06:22.314Z,1019.41
2018-01-28T05:07:22.279Z,1019.47
2018-01-28T05:08:22.294Z,1019.37
2018-01-28T05:09:22.235Z,1019.38
2018-01-28T05:10:22.219Z,1019.33
2018-01-28T05:11:22.199Z,1019.35
2018-01-28T05:12:22.180Z,1019.41
2018-01-28T05:13:22.156Z,1019.45
2018-01-28T05:14:22.138Z,1019.53
2018-01-28T05:15:22.118Z,1019.53
2018-01-28T05:16:22.096Z,1019.54
2018-01-28T05:17:22.072Z,1019.55
2018-01-28T05:18:22.054Z,1019.55
2018-01-28T05:19:22.029Z,1019.50
2018-01-28T05:20:22.016Z,1019.58
2018-01-28T05:21:21.989Z,1019.61
2018-01-28T05:22:21.980Z,1019.55
2018-01-28T05:23:21.953Z,1019.47
2018-01-28T05:24:21.928Z,1019.53
2018-01-28T05:25:21.910Z,1019.53
2018-01-28T05:26:21.893Z,1019.58
2018-01-28T05:27:21.870Z,1019.57
2018-01-28T05:28:21.982Z,1019.57
2018-01-28T05:29:21.834Z,1019.51
2018-01-28T05:30:21.865Z,1019.57
2018-01-28T05:31:21.785Z,1019.53
2018-01-28T05:32:21.770Z,1019.53
2018-01-28T05:33:21.747Z,1019.44
2018-01-28T05:34:21.883Z,1019.52
2018-01-28T05:35:21.708Z,1019.49
2018-01-28T05:36:21.814Z,1019.51
2018-01-28T05:37:21.669Z,1019.37
2018-01-28T05:38:21.650Z,1019.33
2018-01-28T05:39:21.626Z,1019.41
2018-01-28T05:40:21.682Z,1019.21
2018-01-28T05:41:21.590Z,1019.35
2018-01-28T05:42:21.570Z,1019.26
2018-01-28T05:43:21.544Z,1019.39
2018-01-28T05:44:21.651Z,1019.48
2018-01-28T05:45:21.503Z,1019.57
2018-01-28T05:46:21.487Z,1019.57
2018-01-28T05:47:21.463Z,1019.69
2018-01-28T05:48:21.449Z,1019.61
2018-01-28T05:49:21.423Z,1019.66
2018-01-28T05:50:21.404Z,1019.67
2018-01-28T05:51:21.384Z,1019.68
2018-01-28T05:52:21.361Z,1019.70
2018-01-28T05:53:21.352Z,1019.71
2018-01-28T05:54:21.320Z,1019.76
2018-01-28T05:55:21.299Z,1019.88
2018-01-28T05:56:21.279Z,1019.91
2018-01-28T05:57:21.257Z,1019.94
2018-01-28T05:58:21.239Z,1019.95
2018-01-28T05:59:21.217Z,1019.90
2018-01-28T06:00:21.199Z,1019.99
2018-01-28T06:01:21.179Z,1019.99
2018-01-28T06:02:21.157Z,1020.01
2018-01-28T06:03:21.136Z,1020.04
2018-01-28T06:04:21.128Z,1020.07
2018-01-28T06:05:21.097Z,1020.06
2018-01-28T06:06:21.082Z,1020.04
2018-01-28T06:07:21.059Z,1020.03
2018-01-28T06:08:21.041Z,1020.08
2018-01-28T06:09:21.020Z,1020.09
2018-01-28T06:10:20.998Z,1020.10
2018-01-28T06:11:20.975Z,1020.10
2018-01-28T06:12:20.960Z,1020.20
2018-01-28T06:13:20.935Z,1020.13
2018-01-28T06:14:20.934Z,1020.23
2018-01-28T06:15:20.892Z,1020.26
2018-01-28T06:16:20.878Z,1020.33
2018-01-28T06:17:20.858Z,1020.31
2018-01-28T06:18:20.832Z,1020.31
2018-01-28T06:19:20.813Z,1020.33
2018-01-28T06:20:20.792Z,1020.26
2018-01-28T06:21:20.771Z,1020.18
2018-01-28T06:22:20.758Z,1020.21
2018-01-28T06:23:20.730Z,1020.15
2018-01-28T06:24:20.712Z,1020.15
2018-01-28T06:25:20.699Z,1020.19
2018-01-28T06:26:20.671Z,1020.23
2018-01-28T06:27:20.649Z,1020.29
2018-01-28T06:28:20.629Z,1020.20
2018-01-28T06:29:20.616Z,1020.31
2018-01-28T06:30:20.590Z,1020.21
2018-01-28T06:31:20.818Z,1020.32
2018-01-28T06:32:20.548Z,1020.18
2018-01-28T06:33:20.529Z,1020.15
2018-01-28T06:34:20.518Z,1020.12
2018-01-28T06:35:20.490Z,1020.14
2018-01-28T06:36:20.470Z,1020.13
2018-01-28T06:37:20.450Z,1020.17
2018-01-28T06:38:20.429Z,1020.17
2018-01-28T06:39:20.412Z,1020.23
2018-01-28T06:40:20.399Z,1020.33
2018-01-28T06:41:20.371Z,1020.36
2018-01-28T06:42:20.349Z,1020.37
2018-01-28T06:43:20.333Z,1020.32
2018-01-28T06:44:20.309Z,1020.34
2018-01-28T06:45:20.292Z,1020.27
2018-01-28T06:46:20.269Z,1020.13
2018-01-28T06:47:20.259Z,1020.16
2018-01-28T06:48:20.229Z,1020.15
2018-01-28T06:49:20.208Z,1020.15
2018-01-28T06:50:20.190Z,1020.21
2018-01-28T06:51:20.166Z,1020.20
2018-01-28T06:52:20.145Z,1020.15
2018-01-28T06:53:20.129Z,1020.31
2018-01-28T06:54:20.109Z,1020.27
2018-01-28T06:55:20.097Z,1020.25
2018-01-28T06:56:20.067Z,1020.28
2018-01-28T06:57:20.059Z,1020.33
2018-01-28T06:58:20.027Z,1020.39
2018-01-28T06:59:20.007Z,1020.42
2018-01-28T07:00:19.987Z,1020.46
2018-01-28T07:01:19.969Z,1020.51
2018-01-28T07:02:19.949Z,1020.47
2018-01-28T07:03:19.924Z,1020.51
2018-01-28T07:04:19.908Z,1020.59
2018-01-28T07:05:19.885Z,1020.52
2018-01-28T07:06:19.866Z,1020.46
2018-01-28T07:07:19.845Z,1020.50
2018-01-28T07:08:19.824Z,1020.64
2018-01-28T07:09:19.811Z,1020.59
2018-01-28T07:10:19.789Z,1020.57
2018-01-28T07:11:19.767Z,1020.64
2018-01-28T07:12:19.748Z,1020.69
2018-01-28T07:13:19.725Z,1020.74
2018-01-28T07:14:19.704Z,1020.68
2018-01-28T07:15:19.682Z,1020.68
2018-01-28T07:16:19.669Z,1020.75
2018-01-28T07:17:19.644Z,1020.65
2018-01-28T07:18:19.625Z,1020.71
2018-01-28T07:19:19.603Z,1020.60
2018-01-28T07:20:19.589Z,1020.62
2018-01-28T07:21:19.572Z,1020.60
2018-01-28T07:22:19.545Z,1020.57
2018-01-28T07:23:19.526Z,1020.68
2018-01-28T07:24:19.503Z,1020.74
2018-01-28T07:25:19.483Z,1020.75
2018-01-28T07:26:19.472Z,1020.79
2018-01-28T07:27:19.448Z,1020.78
2018-01-28T07:28:19.425Z,1020.85
2018-01-28T07:29:19.409Z,1020.85
2018-01-28T07:30:19.389Z,1020.89
2018-01-28T07:31:19.364Z,1020.96
2018-01-28T07:32:19.348Z,1020.94
2018-01-28T07:33:19.327Z,1020.91
2018-01-28T07:34:19.305Z,1021.00
2018-01-28T07:35:19.289Z,1021.06
2018-01-28T07:36:19.269Z,1021.06
2018-01-28T07:37:19.244Z,1021.10
2018-01-28T07:38:19.237Z,1021.06
2018-01-28T07:39:19.222Z,1021.09
2018-01-28T07:40:19.195Z,1021.02
2018-01-28T07:41:19.169Z,1021.11
2018-01-28T07:42:19.148Z,1021.09
2018-01-28T07:43:19.138Z,1021.01
2018-01-28T07:44:19.107Z,1020.97
2018-01-28T07:45:19.089Z,1020.95
2018-01-28T07:46:19.070Z,1020.98
2018-01-28T07:47:19.049Z,1021.05
2018-01-28T07:48:19.039Z,1021.07
2018-01-28T07:49:19.010Z,1021.08
2018-01-28T07:50:18.991Z,1021.06
2018-01-28T07:51:18.971Z,1021.05
2018-01-28T07:52:18.949Z,1021.01
2018-01-28T07:53:18.930Z,1021.02
2018-01-28T07:54:18.908Z,1020.97
2018-01-28T07:55:18.885Z,1021.11
2018-01-28T07:56:18.873Z,1021.06
2018-01-28T07:57:18.848Z,1021.05
2018-01-28T07:58:18.849Z,1021.09
2018-01-28T07:59:18.810Z,1021.08
2018-01-28T08:00:18.789Z,1021.05
2018-01-28T08:01:18.821Z,1021.10
2018-01-28T08:02:18.749Z,1021.11
2018-01-28T08:03:18.728Z,1021.11
2018-01-28T08:04:18.712Z,1021.07
2018-01-28T08:05:18.694Z,1021.04
2018-01-28T08:06:18.679Z,1021.08
2018-01-28T08:07:18.659Z,1021.09
2018-01-28T08:08:18.637Z,1021.05
2018-01-28T08:09:18.611Z,1021.06
2018-01-28T08:10:18.600Z,1021.05
2018-01-28T08:11:18.612Z,1020.98
2018-01-28T08:12:18.560Z,1021.00
2018-01-28T08:13:18.532Z,1020.96
2018-01-28T08:14:18.516Z,1020.97
2018-01-28T08:15:18.497Z,1020.99
2018-01-28T08:16:18.474Z,1020.95
2018-01-28T08:17:18.472Z,1020.91
2018-01-28T08:18:18.436Z,1020.88
2018-01-28T08:19:18.420Z,1020.94
2018-01-28T08:20:18.395Z,1020.89
2018-01-28T08:21:18.373Z,1020.94
2018-01-28T08:22:18.359Z,1020.98
2018-01-28T08:23:18.333Z,1020.93
2018-01-28T08:24:18.318Z,1020.94
2018-01-28T08:25:18.299Z,1021.00
2018-01-28T08:26:18.283Z,1021.01
2018-01-28T08:27:18.261Z,1020.97
2018-01-28T08:28:18.239Z,1021.02
2018-01-28T08:29:18.222Z,1021.00
2018-01-28T08:30:18.196Z,1021.01
2018-01-28T08:31:18.183Z,1021.00
2018-01-28T08:32:18.159Z,1021.08
2018-01-28T08:33:18.141Z,1021.06
2018-01-28T08:34:18.119Z,1021.06
2018-01-28T08:35:18.099Z,1021.11
2018-01-28T08:36:18.080Z,1021.07
2018-01-28T08:37:18.060Z,1021.07
2018-01-28T08:38:18.042Z,1021.11
2018-01-28T08:39:18.022Z,1021.13
2018-01-28T08:40:18.010Z,1021.08
2018-01-28T08:41:17.980Z,1020.99
2018-01-28T08:42:17.966Z,1021.04
2018-01-28T08:43:17.950Z,1021.01
2018-01-28T08:44:17.924Z,1021.00
2018-01-28T08:45:17.908Z,1021.01
2018-01-28T08:46:17.891Z,1020.98
2018-01-28T08:47:17.861Z,1021.05
2018-01-28T08:48:17.844Z,1021.12
2018-01-28T08:49:17.828Z,1021.13
2018-01-28T08:50:17.805Z,1021.09
2018-01-28T08:51:17.795Z,1021.20
2018-01-28T08:52:17.770Z,1021.12
2018-01-28T08:53:17.750Z,1021.18
2018-01-28T08:54:17.729Z,1021.12
2018-01-28T08:55:17.708Z,1021.14
2018-01-28T08:56:17.686Z,1021.16
2018-01-28T08:57:17.677Z,1021.15
2018-01-28T08:58:17.651Z,1021.19
2018-01-28T08:59:17.633Z,1021.21
2018-01-28T09:00:17.610Z,1021.20
2018-01-28T09:01:17.599Z,1021.21
2018-01-28T09:02:17.578Z,1021.24
2018-01-28T09:03:17.548Z,1021.15
2018-01-28T09:04:17.534Z,1021.23
2018-01-28T09:05:17.519Z,1021.21
2018-01-28T09:06:17.493Z,1021.22
2018-01-28T09:07:17.480Z,1021.16
2018-01-28T09:08:17.459Z,1021.21
2018-01-28T09:09:17.435Z,1021.17
2018-01-28T09:10:17.419Z,1021.15
2018-01-28T09:11:17.399Z,1021.18
2018-01-28T09:12:17.380Z,1021.17
2018-01-28T09:13:17.358Z,1021.27
2018-01-28T09:14:17.359Z,1021.24
2018-01-28T09:15:17.316Z,1021.22
2018-01-28T09:16:17.298Z,1021.27
2018-01-28T09:17:17.279Z,1021.28
2018-01-28T09:18:17.261Z,1021.34
2018-01-28T09:19:17.239Z,1021.30
2018-01-28T09:20:17.217Z,1021.30
2018-01-28T09:21:17.201Z,1021.33
2018-01-28T09:22:17.183Z,1021.42
2018-01-28T09:23:17.159Z,1021.50
2018-01-28T09:24:17.145Z,1021.42
2018-01-28T09:25:17.126Z,1021.43
2018-01-28T09:26:17.103Z,1021.46
2018-01-28T09:27:17.080Z,1021.52
2018-01-28T09:28:17.064Z,1021.50
2018-01-28T09:29:17.053Z,1021.55
2018-01-28T09:30:17.026Z,1021.50
2018-01-28T09:31:17.009Z,1021.52
2018-01-28T09:32:16.988Z,1021.61
2018-01-28T09:33:16.974Z,1021.54
2018-01-28T09:34:16.950Z,1021.48
2018-01-28T09:35:16.931Z,1021.47
2018-01-28T09:36:16.912Z,1021.48
2018-01-28T09:37:16.891Z,1021.49
2018-01-28T09:38:16.878Z,1021.52
2018-01-28T09:39:16.852Z,1021.51
2018-01-28T09:40:16.838Z,1021.54
2018-01-28T09:41:16.818Z,1021.55
2018-01-28T09:42:16.807Z,1021.49
2018-01-28T09:43:16.780Z,1021.56
2018-01-28T09:44:16.759Z,1021.61
2018-01-28T09:45:16.754Z,1021.58
2018-01-28T09:46:16.724Z,1021.62
2018-01-28T09:47:16.701Z,1021.58
2018-01-28T09:48:16.687Z,1021.63
2018-01-28T09:49:16.662Z,1021.63
2018-01-28T09:50:16.646Z,1021.65
2018-01-28T09:51:16.629Z,1021.69
2018-01-28T09:52:16.606Z,1021.66
2018-01-28T09:53:16.601Z,1021.67
2018-01-28T09:54:16.569Z,1021.67
2018-01-28T09:55:16.550Z,1021.66
2018-01-28T09:56:16.527Z,1021.65
2018-01-28T09:57:16.510Z,1021.72
2018-01-28T09:58:16.492Z,1021.67
2018-01-28T09:59:16.469Z,1021.68
2018-01-28T10:00:16.458Z,1021.65
2018-01-28T10:01:16.434Z,1021.60
2018-01-28T10:02:16.423Z,1021.64
2018-01-28T10:03:16.395Z,1021.49
2018-01-28T10:04:16.378Z,1021.47
2018-01-28T10:05:16.365Z,1021.52
2018-01-28T10:06:16.339Z,1021.55
2018-01-28T10:07:16.328Z,1021.56
2018-01-28T10:08:16.302Z,1021.59
2018-01-28T10:09:16.285Z,1021.65
2018-01-28T10:10:16.274Z,1021.73
2018-01-28T10:11:16.244Z,1021.73
2018-01-28T10:12:16.231Z,1021.81
2018-01-28T10:13:16.206Z,1021.75
2018-01-28T10:14:16.197Z,1021.81
2018-01-28T10:15:16.185Z,1021.77
2018-01-28T10:16:16.152Z,1021.80
2018-01-28T10:17:16.135Z,1021.75
2018-01-28T10:18:16.114Z,1021.73
2018-01-28T10:19:16.102Z,1021.68
2018-01-28T10:20:16.072Z,1021.66
2018-01-28T10:21:16.062Z,1021.78
2018-01-28T10:22:16.041Z,1021.75
2018-01-28T10:23:16.022Z,1021.77
2018-01-28T10:24:16.000Z,1021.81
2018-01-28T10:25:15.979Z,1021.73
2018-01-28T10:26:15.960Z,1021.80
2018-01-28T10:27:15.938Z,1021.90
2018-01-28T10:28:15.931Z,1021.93
2018-01-28T10:29:15.907Z,1021.87
2018-01-28T10:30:15.887Z,1021.90
2018-01-28T10:31:15.874Z,1021.81
2018-01-28T10:32:15.860Z,1021.73
2018-01-28T10:33:15.834Z,1021.70
2018-01-28T10:34:15.823Z,1021.78
2018-01-28T10:35:15.798Z,1021.70
2018-01-28T10:36:15.775Z,1021.79
2018-01-28T10:37:15.792Z,1021.70
2018-01-28T10:38:15.743Z,1021.65
2018-01-28T10:39:15.716Z,1021.59
2018-01-28T10:40:15.694Z,1021.70
2018-01-28T10:41:15.691Z,1021.56
2018-01-28T10:42:15.673Z,1021.64
2018-01-28T10:43:15.647Z,1021.64
2018-01-28T10:44:15.623Z,1021.67
2018-01-28T10:45:15.601Z,1021.63
2018-01-28T10:46:15.581Z,1021.64
2018-01-28T10:47:15.559Z,1021.58
2018-01-28T10:48:15.546Z,1021.62
2018-01-28T10:49:15.530Z,1021.63
2018-01-28T10:50:15.509Z,1021.64
2018-01-28T10:51:15.493Z,1021.64
2018-01-28T10:52:15.473Z,1021.64
2018-01-28T10:53:15.450Z,1021.67
2018-01-28T10:54:15.435Z,1021.65
2018-01-28T10:55:15.409Z,1021.77
2018-01-28T10:56:15.390Z,1021.72
2018-01-28T10:57:15.379Z,1021.73
2018-01-28T10:58:15.355Z,1021.64
2018-01-28T10:59:15.351Z,1021.65
2018-01-28T11:00:15.316Z,1021.72
2018-01-28T11:01:15.300Z,1021.68
2018-01-28T11:02:15.290Z,1021.69
2018-01-28T11:03:15.259Z,1021.59
2018-01-28T11:04:15.252Z,1021.59
2018-01-28T11:05:15.226Z,1021.60
2018-01-28T11:06:15.210Z,1021.55
2018-01-28T11:07:15.192Z,1021.59
2018-01-28T11:08:15.169Z,1021.58
2018-01-28T11:09:15.149Z,1021.59
2018-01-28T11:10:15.219Z,1021.63
2018-01-28T11:11:15.111Z,1021.62
2018-01-28T11:12:15.095Z,1021.61
2018-01-28T11:13:15.086Z,1021.59
2018-01-28T11:14:15.068Z,1021.64
2018-01-28T11:15:15.043Z,1021.72
2018-01-28T11:16:15.020Z,1021.66
2018-01-28T11:17:14.998Z,1021.64
2018-01-28T11:18:14.978Z,1021.66
2018-01-28T11:19:14.962Z,1021.65
2018-01-28T11:20:14.940Z,1021.62
2018-01-28T11:21:14.923Z,1021.69
2018-01-28T11:22:14.916Z,1021.86
2018-01-28T11:23:14.882Z,1021.84
2018-01-28T11:24:14.869Z,1021.74
2018-01-28T11:25:14.858Z,1021.76
2018-01-28T11:26:14.829Z,1021.80
2018-01-28T11:27:14.807Z,1021.72
2018-01-28T11:28:14.801Z,1021.80
2018-01-28T11:29:14.769Z,1021.72
2018-01-28T11:30:14.759Z,1021.85
2018-01-28T11:31:14.742Z,1021.81
2018-01-28T11:32:14.726Z,1021.83
2018-01-28T11:33:14.701Z,1021.88
2018-01-28T11:34:14.696Z,1021.88
2018-01-28T11:35:14.659Z,1021.82
2018-01-28T11:36:14.652Z,1021.78
2018-01-28T11:37:14.634Z,1021.85
2018-01-28T11:38:14.609Z,1021.81
2018-01-28T11:39:14.597Z,1021.76
2018-01-28T11:40:14.571Z,1021.78
2018-01-28T11:41:14.573Z,1021.77
2018-01-28T11:42:14.530Z,1021.76
2018-01-28T11:43:14.522Z,1021.81
2018-01-28T11:44:14.500Z,1021.78
2018-01-28T11:45:14.490Z,1021.75
2018-01-28T11:46:14.465Z,1021.74
2018-01-28T11:47:14.444Z,1021.74
2018-01-28T11:48:14.434Z,1021.69
2018-01-28T11:49:14.413Z,1021.79
2018-01-28T11:50:14.397Z,1021.59
2018-01-28T11:51:14.371Z,1021.65
2018-01-28T11:52:14.359Z,1021.65
2018-01-28T11:53:14.335Z,1021.69
2018-01-28T11:54:14.323Z,1021.72
2018-01-28T11:55:14.331Z,1021.75
2018-01-28T11:56:14.284Z,1021.75
2018-01-28T11:57:14.265Z,1021.81
2018-01-28T11:58:14.243Z,1021.85
2018-01-28T11:59:14.234Z,1021.94
2018-01-28T12:00:14.410Z,1021.83
2018-01-28T12:01:14.188Z,1021.87
2018-01-28T12:02:14.178Z,1021.87
2018-01-28T12:03:14.153Z,1021.79
2018-01-28T12:04:14.142Z,1021.84
2018-01-28T12:05:14.126Z,1021.71